Time;durP1;ratioP1;P1;durP2;ratioP2;P2;SDS_P1;SDS_P2;PMS_P1;PMS_P2;Temp;Humidity;BMP_temperature;BMP_pressure;BME280_temperature;BME280_humidity;BME280_pressure;Samples;Min_cycle;Max_cycle;Signal;HPM_P1;HPM_P2
2021/11/26 00:00:42;;;;;;;6.68;0.70;;;;;;;6.76;76.27;100684.00;5093783;28;20036;-78
2021/11/26 00:03:08;;;;;;;7.32;0.77;;;;;;;6.71;75.74;100685.50;5091353;28;20048;-78
2021/11/26 00:05:33;;;;;;;11.48;0.90;;;;;;;6.68;74.08;100675.94;5076647;28;20054;-77
2021/11/26 00:07:58;;;;;;;12.13;1.08;;;;;;;6.66;74.70;100661.94;5088800;28;20350;-77
2021/11/26 00:10:24;;;;;;;8.43;0.90;;;;;;;6.63;74.89;100670.25;5083009;28;20075;-77
2021/11/26 00:12:56;;;;;;;6.07;0.88;;;;;;;6.60;73.94;100665.22;5086734;28;20025;-77
2021/11/26 00:18:03;;;;;;;6.47;1.52;;;;;;;6.54;76.13;100655.19;5091653;28;20029;-77
2021/11/26 00:20:28;;;;;;;15.68;1.60;;;;;;;6.50;75.38;100649.31;5082252;28;20060;-77
2021/11/26 00:22:53;;;;;;;12.50;1.98;;;;;;;6.51;75.56;100651.00;5082460;28;20032;-77
2021/11/26 00:25:19;;;;;;;14.15;1.50;;;;;;;6.50;76.29;100645.78;5079384;28;20029;-77
2021/11/26 00:27:44;;;;;;;5.80;1.10;;;;;;;6.46;77.30;100642.59;5077929;28;20028;-76
2021/11/26 00:30:10;;;;;;;11.15;1.58;;;;;;;6.48;77.98;100656.66;5079581;28;20056;-77
2021/11/26 00:32:35;;;;;;;14.63;2.00;;;;;;;6.45;78.05;100670.34;5080362;28;20032;-78
2021/11/26 00:35:01;;;;;;;12.82;1.30;;;;;;;6.13;77.55;100649.59;5078029;28;20086;-75
2021/11/26 00:37:26;;;;;;;9.85;2.00;;;;;;;5.84;79.88;100637.34;5075242;28;20027;-75
2021/11/26 00:39:52;;;;;;;9.73;2.03;;;;;;;5.76;80.93;100629.28;5078853;28;20040;-76
2021/11/26 00:42:17;;;;;;;14.07;1.50;;;;;;;5.64;81.98;100618.03;5081930;28;20116;-76
2021/11/26 00:44:42;;;;;;;17.95;1.90;;;;;;;5.57;83.78;100611.63;5085071;28;20029;-76
2021/11/26 00:47:08;;;;;;;24.92;2.25;;;;;;;5.43;84.76;100620.22;5078928;28;20373;-74
2021/11/26 00:49:33;;;;;;;16.90;2.35;;;;;;;5.34;85.56;100619.28;5081532;28;20481;-74
2021/11/26 00:51:58;;;;;;;14.23;1.60;;;;;;;5.28;86.41;100622.56;5076442;28;20024;-75
2021/11/26 00:54:24;;;;;;;12.77;1.42;;;;;;;5.28;87.36;100614.56;5076532;28;20116;-75
2021/11/26 00:56:49;;;;;;;16.15;1.80;;;;;;;5.26;87.83;100604.03;5076145;28;20032;-76
2021/11/26 00:59:15;;;;;;;14.07;1.65;;;;;;;5.25;88.21;100601.53;5077234;28;20044;-77
2021/11/26 01:01:40;;;;;;;23.27;1.88;;;;;;;5.21;89.13;100602.81;5076353;28;20457;-77
2021/11/26 01:04:06;;;;;;;22.63;2.45;;;;;;;5.18;89.68;100595.97;5074652;28;20094;-77
2021/11/26 01:06:32;;;;;;;27.25;2.05;;;;;;;5.18;89.78;100589.78;5076051;28;20028;-78
2021/11/26 01:08:57;;;;;;;15.05;1.80;;;;;;;5.19;90.49;100586.16;5074929;28;20137;-76
2021/11/26 01:11:24;;;;;;;14.73;1.70;;;;;;;5.20;90.49;100588.66;5076279;28;20020;-77
2021/11/26 01:13:49;;;;;;;20.15;2.67;;;;;;;5.23;90.93;100579.50;5075835;28;20035;-77
2021/11/26 01:16:15;;;;;;;17.30;1.48;;;;;;;5.26;90.59;100564.00;5080754;28;20032;-77
2021/11/26 01:18:42;;;;;;;14.55;1.25;;;;;;;5.30;91.23;100577.91;5081043;28;20028;-77
2021/11/26 01:21:08;;;;;;;18.35;1.52;;;;;;;5.35;91.29;100564.94;5080800;28;20128;-78
2021/11/26 01:23:37;;;;;;;11.70;1.23;;;;;;;5.37;91.11;100562.09;5081256;28;20460;-77
2021/11/26 01:26:04;;;;;;;17.52;1.52;;;;;;;5.38;91.15;100561.13;5076072;28;20028;-77
2021/11/26 01:28:29;;;;;;;9.75;1.50;;;;;;;5.40;90.84;100551.97;5075032;28;20103;-78
2021/11/26 01:30:55;;;;;;;13.98;1.55;;;;;;;5.41;91.25;100561.63;5075796;28;20111;-77
2021/11/26 01:33:21;;;;;;;10.55;1.17;;;;;;;5.44;87.61;100557.81;5076108;28;20029;-76
2021/11/26 01:35:50;;;;;;;17.05;1.60;;;;;;;5.55;86.80;100556.72;5075660;28;20073;-76
2021/11/26 01:38:16;;;;;;;6.28;0.90;;;;;;;5.54;86.01;100563.91;5076587;28;20032;-76
2021/11/26 01:40:42;;;;;;;5.63;1.40;;;;;;;5.36;85.61;100552.41;5074276;28;20027;-75
2021/11/26 01:43:09;;;;;;;8.45;0.90;;;;;;;5.25;86.87;100548.16;5057452;28;20032;-76
2021/11/26 01:45:44;;;;;;;11.85;1.77;;;;;;;5.21;87.80;100557.47;5074519;28;20036;-75
2021/11/26 01:48:10;;;;;;;11.32;1.17;;;;;;;5.14;87.37;100557.25;5075897;28;20035;-75
2021/11/26 01:50:35;;;;;;;9.45;1.00;;;;;;;5.09;87.52;100537.38;5075458;28;20016;-75
2021/11/26 01:53:01;;;;;;;10.50;1.83;;;;;;;5.06;88.08;100544.69;5074315;28;20032;-75
2021/11/26 01:55:26;;;;;;;17.25;2.03;;;;;;;5.04;87.92;100540.50;5076367;28;20545;-76
2021/11/26 01:57:52;;;;;;;14.27;1.92;;;;;;;5.01;88.24;100530.13;5076625;28;20530;-77
2021/11/26 02:00:23;;;;;;;9.65;1.48;;;;;;;4.98;86.40;100520.63;5075938;28;20060;-77
2021/11/26 02:02:48;;;;;;;8.40;1.10;;;;;;;5.05;85.25;100519.00;5073755;28;20032;-76
2021/11/26 02:05:13;;;;;;;10.60;1.02;;;;;;;5.08;85.96;100515.16;5073343;28;20035;-76
2021/11/26 02:07:39;;;;;;;8.77;1.10;;;;;;;5.05;84.65;100494.16;5073610;28;20024;-75
2021/11/26 02:10:05;;;;;;;10.48;1.20;;;;;;;5.04;85.25;100487.97;5072907;28;20438;-76
2021/11/26 02:12:31;;;;;;;7.20;1.10;;;;;;;5.03;85.26;100480.97;5073271;28;20035;-77
2021/11/26 02:14:58;;;;;;;12.95;1.90;;;;;;;4.96;85.91;100469.25;5074819;28;20483;-77
2021/11/26 02:17:23;;;;;;;8.65;1.48;;;;;;;4.97;86.64;100476.25;5056891;28;20403;-78
2021/11/26 02:19:53;;;;;;;12.68;1.73;;;;;;;4.95;87.35;100458.72;5075146;28;20040;-77
2021/11/26 02:22:18;;;;;;;13.07;1.42;;;;;;;4.88;87.35;100460.34;5075154;28;20388;-78
2021/11/26 02:24:44;;;;;;;10.57;2.15;;;;;;;4.84;88.07;100449.16;5075545;28;20050;-78
2021/11/26 02:27:09;;;;;;;14.90;1.52;;;;;;;4.80;88.53;100443.28;5075168;28;20024;-78
2021/11/26 02:29:34;;;;;;;13.38;1.75;;;;;;;4.71;88.58;100427.38;5074547;28;20063;-78
2021/11/26 02:32:00;;;;;;;10.65;1.33;;;;;;;4.65;88.92;100433.34;5058248;28;20104;-78
2021/11/26 02:34:25;;;;;;;7.20;1.30;;;;;;;4.57;89.52;100416.28;5075351;28;20119;-79
2021/11/26 02:36:50;;;;;;;14.07;1.63;;;;;;;4.54;90.16;100407.75;5073622;28;20035;-79
2021/11/26 02:39:16;;;;;;;10.57;1.40;;;;;;;4.52;90.46;100405.22;5073191;28;20024;-79
2021/11/26 02:41:43;;;;;;;17.60;1.52;;;;;;;4.53;90.83;100404.25;5073211;28;20463;-79
2021/11/26 02:44:09;;;;;;;14.70;2.13;;;;;;;4.54;90.91;100389.94;5073700;28;20035;-79
2021/11/26 02:46:35;;;;;;;21.73;1.63;;;;;;;4.56;90.37;100387.97;5056349;28;20309;-79
2021/11/26 02:49:01;;;;;;;17.30;2.03;;;;;;;4.60;89.65;100375.97;5074498;28;20035;-79
2021/11/26 02:51:27;;;;;;;15.65;1.90;;;;;;;4.69;89.32;100378.75;5074214;28;20021;-79
2021/11/26 02:53:52;;;;;;;16.98;2.35;;;;;;;4.77;87.39;100378.78;5075254;28;20035;-79
2021/11/26 02:56:17;;;;;;;18.50;2.28;;;;;;;4.86;86.96;100367.19;5076692;28;20533;-79
2021/11/26 02:58:43;;;;;;;16.33;2.38;;;;;;;4.94;86.25;100369.91;5075899;28;20035;-79
2021/11/26 03:01:08;;;;;;;26.27;3.03;;;;;;;4.98;84.50;100357.94;5077721;28;20040;-79
2021/11/26 03:03:34;;;;;;;25.27;2.33;;;;;;;5.01;83.56;100349.59;5082764;28;20025;-79
2021/11/26 03:06:04;;;;;;;25.65;3.00;;;;;;;5.02;83.38;100351.28;5065353;28;20031;-78
2021/11/26 03:08:30;;;;;;;27.95;2.95;;;;;;;5.01;82.89;100349.59;5086360;28;20020;-79
2021/11/26 03:10:59;;;;;;;17.83;2.28;;;;;;;5.00;80.06;100345.28;5087198;28;20031;-79
2021/11/26 03:13:25;;;;;;;26.33;4.68;;;;;;;4.98;80.18;100333.94;5067031;28;20020;-79
2021/11/26 03:15:51;;;;;;;31.75;4.00;;;;;;;5.02;80.55;100335.28;5073795;28;20456;-79
2021/11/26 03:18:18;;;;;;;20.33;2.35;;;;;;;4.97;80.67;100324.25;5073031;28;20111;-79
2021/11/26 03:20:47;;;;;;;23.60;2.50;;;;;;;4.99;79.85;100319.59;5075194;28;20028;-78
2021/11/26 03:23:13;;;;;;;26.95;3.38;;;;;;;4.99;79.81;100316.91;5075808;28;20052;-78
2021/11/26 03:25:41;;;;;;;9.77;1.60;;;;;;;5.00;79.56;100309.75;5075486;28;20064;-79
2021/11/26 03:28:10;;;;;;;16.45;2.30;;;;;;;4.96;77.36;100297.75;5072723;28;20357;-79
2021/11/26 03:30:36;;;;;;;15.13;2.15;;;;;;;5.02;77.10;100292.59;5071814;28;20098;-79
2021/11/26 03:33:01;;;;;;;16.33;2.42;;;;;;;5.00;77.41;100289.28;5073415;28;20028;-79
2021/11/26 03:35:26;;;;;;;15.32;2.33;;;;;;;5.03;77.19;100283.63;5072102;28;20021;-79
2021/11/26 03:37:53;;;;;;;16.58;2.22;;;;;;;5.03;76.69;100283.63;5055220;28;20032;-79
2021/11/26 03:40:19;;;;;;;13.68;2.55;;;;;;;5.04;77.59;100268.44;5071984;28;20032;-79
2021/11/26 03:42:45;;;;;;;23.02;3.17;;;;;;;5.06;77.23;100272.63;5073076;28;20438;-79
2021/11/26 03:45:10;;;;;;;14.63;2.22;;;;;;;5.09;76.30;100273.31;5071857;28;20039;-78
2021/11/26 03:47:36;;;;;;;23.33;2.30;;;;;;;5.10;76.66;100258.97;5072078;28;20029;-79
2021/11/26 03:50:03;;;;;;;16.40;2.60;;;;;;;5.12;76.25;100264.97;5071976;28;20032;-79
2021/11/26 03:52:29;;;;;;;20.08;2.45;;;;;;;5.12;75.47;100254.31;5072009;28;20025;-79
2021/11/26 03:54:54;;;;;;;19.00;2.50;;;;;;;5.13;75.62;100248.78;5073018;28;20074;-79
2021/11/26 03:57:19;;;;;;;13.65;2.75;;;;;;;5.14;74.97;100245.16;5072257;28;20508;-79
2021/11/26 03:59:44;;;;;;;16.83;2.17;;;;;;;5.19;74.62;100244.69;5071727;28;20112;-79
2021/11/26 04:02:10;;;;;;;21.20;2.20;;;;;;;5.14;73.53;100242.47;5054994;28;20078;-79
2021/11/26 04:04:36;;;;;;;10.48;1.92;;;;;;;5.16;74.33;100228.97;5071550;28;20111;-79
2021/11/26 04:07:02;;;;;;;15.95;2.30;;;;;;;5.15;73.70;100229.97;5072883;28;20025;-79
2021/11/26 04:09:27;;;;;;;16.20;2.13;;;;;;;5.14;73.07;100225.66;5074255;28;20169;-77
2021/11/26 04:11:52;;;;;;;17.58;2.15;;;;;;;5.17;73.39;100228.00;5073454;28;20538;-78
2021/11/26 04:14:18;;;;;;;10.35;2.05;;;;;;;5.14;72.68;100213.16;5075363;28;20541;-78
2021/11/26 04:16:45;;;;;;;14.90;1.95;;;;;;;5.12;70.89;100214.31;5058739;28;20399;-78
2021/11/26 04:19:11;;;;;;;19.92;2.30;;;;;;;5.11;72.40;100205.47;5076838;28;20044;-79
2021/11/26 04:21:36;;;;;;;15.13;1.77;;;;;;;5.09;70.77;100206.63;5076463;28;20021;-78
2021/11/26 04:24:02;;;;;;;12.18;1.98;;;;;;;5.07;71.96;100201.44;5076824;28;20067;-78
2021/11/26 04:26:28;;;;;;;17.00;3.50;;;;;;;5.03;69.57;100192.94;5076724;28;20029;-77
2021/11/26 04:28:54;;;;;;;13.88;2.53;;;;;;;5.02;69.01;100185.91;5074975;28;20084;-78
2021/11/26 04:31:19;;;;;;;13.85;2.63;;;;;;;5.02;70.52;100185.91;5076813;28;20044;-78
2021/11/26 04:33:44;;;;;;;11.95;2.13;;;;;;;5.03;70.23;100176.09;5058453;28;20391;-78
2021/11/26 04:36:10;;;;;;;13.30;2.15;;;;;;;5.02;69.08;100167.25;5075629;28;20025;-78
2021/11/26 04:38:35;;;;;;;12.60;1.77;;;;;;;5.00;70.10;100160.41;5076254;28;20031;-79
2021/11/26 04:41:00;;;;;;;10.57;1.90;;;;;;;4.98;70.12;100163.25;5076787;28;20048;-77
2021/11/26 04:43:26;;;;;;;17.75;2.53;;;;;;;5.02;71.33;100147.75;5074834;28;20024;-78
2021/11/26 04:45:52;;;;;;;8.93;1.70;;;;;;;5.01;71.74;100141.59;5074933;28;20473;-78
2021/11/26 04:48:19;;;;;;;15.40;2.03;;;;;;;5.03;67.81;100134.28;5074802;28;20128;-78
2021/11/26 04:50:45;;;;;;;16.33;2.22;;;;;;;5.01;70.14;100122.09;5076047;28;20039;-78
2021/11/26 04:53:10;;;;;;;18.20;2.70;;;;;;;5.01;69.64;100119.44;5057761;28;20035;-78
2021/11/26 04:55:35;;;;;;;19.10;2.08;;;;;;;4.98;70.36;100120.59;5075933;28;20029;-78
2021/11/26 04:58:01;;;;;;;17.58;2.00;;;;;;;4.99;70.01;100110.75;5056583;28;20052;-78
2021/11/26 05:00:26;;;;;;;15.52;1.85;;;;;;;4.98;70.39;100103.75;5075223;28;20032;-78
2021/11/26 05:02:52;;;;;;;20.60;2.20;;;;;;;4.94;71.72;100091.75;5074790;28;20063;-78
2021/11/26 05:05:17;;;;;;;19.17;2.42;;;;;;;4.91;70.20;100092.06;5075506;28;20032;-77
2021/11/26 05:07:42;;;;;;;14.27;1.73;;;;;;;4.93;69.80;100085.56;5074790;28;20020;-77
2021/11/26 05:10:09;;;;;;;15.95;2.47;;;;;;;4.92;69.92;100083.88;5074663;28;20032;-78
2021/11/26 05:12:37;;;;;;;15.52;1.90;;;;;;;4.93;68.22;100074.09;5075614;28;20040;-77
2021/11/26 05:15:03;;;;;;;12.63;1.92;;;;;;;4.93;67.90;100069.56;5074399;28;20024;-78
2021/11/26 05:17:28;;;;;;;13.55;1.73;;;;;;;4.94;67.82;100060.56;5075930;28;20036;-77
2021/11/26 05:19:54;;;;;;;22.17;2.13;;;;;;;4.94;68.01;100057.91;5057847;28;20082;-78
2021/11/26 05:22:19;;;;;;;10.63;1.65;;;;;;;4.94;67.33;100055.22;5073644;28;20078;-78
2021/11/26 05:24:44;;;;;;;15.95;1.90;;;;;;;4.93;67.53;100037.59;5075342;28;20068;-78
2021/11/26 05:27:10;;;;;;;7.07;1.23;;;;;;;4.92;66.65;100029.72;5075575;28;20025;-77
2021/11/26 05:29:35;;;;;;;13.27;1.98;;;;;;;4.92;67.25;100019.91;5074954;28;20049;-77
2021/11/26 05:32:00;;;;;;;10.70;1.73;;;;;;;4.91;67.44;100015.56;5074602;28;20052;-77
2021/11/26 05:34:26;;;;;;;10.00;1.83;;;;;;;4.92;65.87;100003.91;5073900;28;20017;-77
2021/11/26 05:36:51;;;;;;;14.07;1.63;;;;;;;4.93;66.47;99994.91;5074400;28;20047;-78
2021/11/26 05:39:16;;;;;;;12.18;1.85;;;;;;;4.94;67.35;99991.25;5079202;28;20024;-77
2021/11/26 05:41:42;;;;;;;21.90;1.77;;;;;;;4.97;65.02;99990.91;5076210;28;20021;-77
2021/11/26 05:44:07;;;;;;;13.13;1.40;;;;;;;4.99;66.58;99982.75;5058204;28;20028;-77
2021/11/26 05:46:33;;;;;;;8.40;1.67;;;;;;;4.99;66.17;99983.56;5077101;28;20329;-77
2021/11/26 05:48:58;;;;;;;9.82;1.63;;;;;;;5.00;66.26;99971.06;5076787;28;20029;-77
2021/11/26 05:51:23;;;;;;;15.13;2.40;;;;;;;4.99;67.32;99967.56;5078947;28;20473;-77
2021/11/26 05:53:49;;;;;;;11.05;1.70;;;;;;;4.98;66.67;99960.59;5077124;28;20101;-77
2021/11/26 05:56:14;;;;;;;10.38;1.90;;;;;;;5.00;66.39;99963.94;5077783;28;20052;-77
2021/11/26 05:58:40;;;;;;;14.90;1.77;;;;;;;5.00;67.21;99953.25;5061573;28;20079;-77
2021/11/26 06:01:05;;;;;;;11.50;2.15;;;;;;;5.02;67.16;99951.25;5060549;28;20109;-77
2021/11/26 06:03:31;;;;;;;14.90;1.77;;;;;;;5.02;67.12;99948.56;5078584;28;20469;-76
2021/11/26 06:05:56;;;;;;;11.38;2.00;;;;;;;5.04;65.46;99937.75;5077092;28;20029;-76
2021/11/26 06:08:21;;;;;;;15.18;2.17;;;;;;;5.04;65.96;99924.41;5074906;28;20024;-76
2021/11/26 06:10:47;;;;;;;15.48;1.95;;;;;;;5.07;65.81;99921.41;5056949;28;20017;-76
2021/11/26 06:13:12;;;;;;;15.05;3.13;;;;;;;5.07;66.58;99916.06;5074613;28;20021;-76
2021/11/26 06:15:37;;;;;;;13.05;1.70;;;;;;;5.07;67.07;99910.75;5076563;28;20365;-78
2021/11/26 06:18:02;;;;;;;14.40;1.48;;;;;;;5.06;67.00;99909.91;5056750;28;20387;-77
2021/11/26 06:20:28;;;;;;;15.40;1.92;;;;;;;5.06;66.03;99904.56;5073264;28;20017;-78
2021/11/26 06:22:53;;;;;;;10.25;1.77;;;;;;;5.07;66.59;99900.91;5074939;28;20028;-78
2021/11/26 06:25:21;;;;;;;16.08;1.95;;;;;;;5.07;66.38;99894.72;5073532;28;20044;-79
2021/11/26 06:27:47;;;;;;;9.07;1.30;;;;;;;5.12;66.19;99886.22;5073604;28;20090;-78
2021/11/26 06:30:14;;;;;;;18.67;1.85;;;;;;;5.12;66.44;99875.56;5074041;28;20102;-79
2021/11/26 06:32:41;;;;;;;7.90;1.50;;;;;;;5.14;68.24;99869.06;5072676;28;20025;-78
2021/11/26 06:35:07;;;;;;;11.55;1.70;;;;;;;5.17;68.22;99860.72;5055008;28;20457;-78
2021/11/26 06:37:32;;;;;;;12.98;2.13;;;;;;;5.18;68.84;99856.19;5072432;28;20056;-78
2021/11/26 06:39:58;;;;;;;11.63;1.38;;;;;;;5.20;68.98;99857.69;5073917;28;20071;-79
2021/11/26 06:42:23;;;;;;;10.00;2.05;;;;;;;5.22;69.60;99849.53;5076466;28;20453;-77
2021/11/26 06:44:50;;;;;;;11.27;1.98;;;;;;;5.25;70.07;99838.50;5079358;28;20020;-79
2021/11/26 06:47:16;;;;;;;15.23;1.85;;;;;;;5.25;70.57;99838.50;5083481;28;20047;-78
2021/11/26 06:49:41;;;;;;;12.73;2.13;;;;;;;5.32;69.77;99823.50;5073875;28;20024;-78
2021/11/26 06:52:06;;;;;;;20.27;2.25;;;;;;;5.35;70.62;99827.66;5076847;28;20044;-78
2021/11/26 06:54:32;;;;;;;8.07;1.80;;;;;;;5.39;70.22;99829.78;5078723;28;20031;-78
2021/11/26 06:56:57;;;;;;;11.40;1.73;;;;;;;5.39;70.14;99821.78;5079252;28;20064;-79
2021/11/26 06:59:23;;;;;;;17.67;1.80;;;;;;;5.40;69.98;99819.97;5080945;28;20038;-78
2021/11/26 07:01:48;;;;;;;11.40;1.85;;;;;;;5.48;70.11;99812.75;5078127;28;20028;-79
2021/11/26 07:04:13;;;;;;;8.50;1.80;;;;;;;5.46;70.68;99798.72;5086079;28;20519;-78
2021/11/26 07:06:39;;;;;;;12.18;2.22;;;;;;;5.47;69.77;99784.38;5078893;28;20475;-79
2021/11/26 07:09:05;;;;;;;9.18;1.70;;;;;;;5.48;70.19;99772.72;5081597;28;20039;-78
2021/11/26 07:11:30;;;;;;;11.02;1.73;;;;;;;5.48;69.71;99759.38;5081713;28;20464;-78
2021/11/26 07:13:56;;;;;;;9.77;1.48;;;;;;;5.49;69.61;99762.84;5080064;28;20107;-77
2021/11/26 07:16:21;;;;;;;11.35;1.90;;;;;;;5.54;68.94;99760.50;5074346;28;20063;-77
2021/11/26 07:18:47;;;;;;;16.63;2.35;;;;;;;5.52;69.06;99753.66;5073452;28;20032;-78
2021/11/26 07:21:12;;;;;;;11.70;1.95;;;;;;;5.54;69.13;99739.16;5073802;28;20029;-77
2021/11/26 07:23:38;;;;;;;9.88;1.70;;;;;;;5.54;69.73;99732.97;5073413;28;20037;-78
2021/11/26 07:26:04;;;;;;;13.60;1.90;;;;;;;5.55;70.09;99732.78;5076349;28;20059;-78
2021/11/26 07:28:29;;;;;;;9.98;1.75;;;;;;;5.60;69.45;99735.75;5074599;28;20028;-79
2021/11/26 07:30:55;;;;;;;12.68;1.90;;;;;;;5.62;69.24;99727.59;5082426;28;20093;-79
2021/11/26 07:33:21;;;;;;;11.93;1.52;;;;;;;5.61;69.37;99726.75;5067251;28;20031;-77
2021/11/26 07:35:46;;;;;;;14.60;1.77;;;;;;;5.64;69.75;99722.91;5088764;28;20088;-79
2021/11/26 07:38:12;;;;;;;17.02;1.63;;;;;;;5.66;70.10;99712.88;5078728;28;20071;-77
2021/11/26 07:40:37;;;;;;;16.55;2.67;;;;;;;5.64;70.04;99712.22;5087425;28;20082;-77
2021/11/26 07:43:02;;;;;;;12.93;2.10;;;;;;;5.65;70.60;99708.53;5086924;28;20080;-77
2021/11/26 07:45:28;;;;;;;10.70;1.70;;;;;;;5.65;71.40;99698.69;5087712;28;20027;-77
2021/11/26 07:47:53;;;;;;;9.93;1.90;;;;;;;5.54;70.95;99680.44;5086510;28;20112;-77
2021/11/26 07:50:19;;;;;;;15.88;1.75;;;;;;;5.43;71.07;99688.84;5084072;28;20106;-77
2021/11/26 07:52:44;;;;;;;13.68;2.05;;;;;;;5.42;71.77;99680.00;5086876;28;20035;-77
2021/11/26 07:55:10;;;;;;;10.30;2.40;;;;;;;5.38;72.29;99670.69;5085728;28;20102;-76
2021/11/26 07:57:36;;;;;;;20.92;2.03;;;;;;;5.38;72.32;99664.53;5085460;28;20090;-76
2021/11/26 08:00:06;;;;;;;21.10;3.17;;;;;;;5.39;72.36;99659.00;5084385;28;20028;-78
2021/11/26 08:02:31;;;;;;;7.75;1.65;;;;;;;5.42;72.77;99663.97;5079627;28;20028;-79
2021/11/26 08:04:56;;;;;;;12.20;1.90;;;;;;;5.43;72.71;99643.50;5080096;28;20036;-77
2021/11/26 08:07:22;;;;;;;18.30;2.83;;;;;;;5.44;73.27;99640.63;5063652;28;20077;-78
2021/11/26 08:09:47;;;;;;;10.60;2.25;;;;;;;5.42;73.72;99631.16;5081938;28;20035;-77
2021/11/26 08:12:12;;;;;;;10.25;1.70;;;;;;;5.38;75.24;99630.69;5085677;28;20032;-76
2021/11/26 08:14:38;;;;;;;12.77;2.10;;;;;;;5.27;76.75;99629.25;5081515;28;20353;-77
2021/11/26 08:17:03;;;;;;;13.10;2.45;;;;;;;5.14;77.74;99620.19;5079683;28;20020;-77
2021/11/26 08:19:28;;;;;;;16.02;2.58;;;;;;;5.03;80.24;99616.91;5078192;28;20029;-77
2021/11/26 08:21:55;;;;;;;9.05;2.20;;;;;;;4.95;80.31;99616.97;5081576;28;20059;-77
2021/11/26 08:24:21;;;;;;;10.23;1.77;;;;;;;4.78;81.13;99605.53;5076545;28;20029;-78
2021/11/26 08:26:47;;;;;;;16.77;2.10;;;;;;;4.62;82.36;99601.13;5075698;28;20028;-77
2021/11/26 08:29:13;;;;;;;13.90;2.10;;;;;;;4.50;83.37;99583.88;5075773;28;20052;-77
2021/11/26 08:31:38;;;;;;;8.85;1.67;;;;;;;4.36;83.12;99593.41;5074660;28;20078;-76
2021/11/26 08:34:05;;;;;;;11.93;2.72;;;;;;;4.37;83.88;99587.09;5074793;28;20048;-76
2021/11/26 08:36:31;;;;;;;16.00;2.20;;;;;;;4.36;83.85;99573.94;5057152;28;20035;-78
2021/11/26 08:38:57;;;;;;;8.65;1.33;;;;;;;4.41;84.39;99568.94;5058693;28;20024;-80
2021/11/26 08:41:23;;;;;;;11.45;1.80;;;;;;;4.43;81.83;99561.59;5077582;28;20024;-79
2021/11/26 08:43:48;;;;;;;15.88;2.20;;;;;;;4.45;82.85;99554.28;5078374;28;20035;-79
2021/11/26 08:46:14;;;;;;;10.50;2.03;;;;;;;4.50;82.99;99557.25;5075340;28;20020;-78
2021/11/26 08:48:40;;;;;;;21.73;2.50;;;;;;;4.53;82.43;99551.56;5076564;28;20177;-77
2021/11/26 08:51:06;;;;;;;14.13;1.67;;;;;;;4.59;81.17;99553.53;5077890;28;20040;-78
2021/11/26 08:53:34;;;;;;;12.02;2.00;;;;;;;4.58;81.33;99543.88;5077595;28;20059;-78
2021/11/26 08:55:59;;;;;;;15.30;1.90;;;;;;;4.60;80.75;99541.84;5060652;28;20021;-79
2021/11/26 08:58:24;;;;;;;8.68;1.75;;;;;;;4.63;81.42;99530.00;5076613;28;20089;-77
2021/11/26 09:00:50;;;;;;;10.48;2.00;;;;;;;4.67;81.55;99519.84;5078947;28;20099;-78
2021/11/26 09:03:15;;;;;;;14.38;1.80;;;;;;;4.74;81.25;99510.13;5077111;28;20028;-76
2021/11/26 09:05:41;;;;;;;11.90;2.03;;;;;;;4.76;81.55;99503.59;5057693;28;20036;-77
2021/11/26 09:08:13;;;;;;;21.77;2.35;;;;;;;4.81;81.55;99495.91;5058689;28;20112;-77
2021/11/26 09:10:39;;;;;;;14.15;2.05;;;;;;;4.81;81.18;99501.22;5078041;28;20032;-78
2021/11/26 09:13:05;;;;;;;16.27;2.67;;;;;;;4.83;80.71;99487.75;5059372;28;20029;-78
2021/11/26 09:15:32;;;;;;;9.65;2.25;;;;;;;4.78;80.71;99485.59;5078046;28;20127;-77
2021/11/26 09:17:57;;;;;;;20.30;2.95;;;;;;;4.81;81.05;99482.56;5060134;28;20021;-78
2021/11/26 09:20:23;;;;;;;12.70;2.20;;;;;;;4.82;81.50;99491.44;5057647;28;20017;-77
2021/11/26 09:22:48;;;;;;;11.52;2.85;;;;;;;4.69;81.71;99486.69;5075626;28;20021;-76
2021/11/26 09:25:14;;;;;;;14.43;2.95;;;;;;;4.67;81.49;99474.53;5076818;28;20056;-78
2021/11/26 09:27:40;;;;;;;10.05;2.75;;;;;;;4.71;81.92;99462.50;5076626;28;20169;-77
2021/11/26 09:30:08;;;;;;;15.55;3.60;;;;;;;4.64;83.57;99462.41;5074878;28;20464;-77
2021/11/26 09:32:33;;;;;;;14.32;3.30;;;;;;;4.61;83.92;99452.91;5057954;28;20030;-76
2021/11/26 09:34:59;;;;;;;21.35;3.00;;;;;;;4.56;83.74;99446.47;5057423;28;20025;-76
2021/11/26 09:37:24;;;;;;;21.88;3.53;;;;;;;4.58;84.51;99441.78;5074557;28;20035;-76
2021/11/26 09:39:50;;;;;;;15.80;2.78;;;;;;;4.60;85.58;99442.44;5078206;28;20032;-78
2021/11/26 09:42:15;;;;;;;20.25;3.25;;;;;;;4.61;84.46;99426.28;5078837;28;20107;-76
2021/11/26 09:44:43;;;;;;;13.15;2.60;;;;;;;4.67;84.07;99426.56;5075397;28;20062;-79
2021/11/26 09:47:09;;;;;;;13.30;2.45;;;;;;;4.71;84.05;99427.84;5073635;28;20476;-79
2021/11/26 09:49:36;;;;;;;15.00;2.25;;;;;;;4.74;84.97;99408.84;5073626;28;20029;-78
2021/11/26 09:52:01;;;;;;;12.20;2.42;;;;;;;4.75;85.40;99400.66;5073158;28;20035;-79
2021/11/26 09:54:27;;;;;;;18.48;2.75;;;;;;;4.75;84.43;99383.84;5073546;28;20028;-78
2021/11/26 09:56:52;;;;;;;13.88;2.38;;;;;;;4.81;84.76;99391.94;5073604;28;20031;-76
2021/11/26 09:59:19;;;;;;;13.32;2.25;;;;;;;4.85;83.92;99387.09;5075604;28;20495;-79
2021/11/26 10:01:45;;;;;;;18.95;2.30;;;;;;;4.89;83.34;99377.72;5074447;28;20020;-78
2021/11/26 10:04:22;;;;;;;10.40;2.10;;;;;;;4.90;83.12;99371.41;5056819;28;20025;-79
2021/11/26 10:06:48;;;;;;;22.02;2.53;;;;;;;4.85;82.92;99384.44;5073527;28;20053;-78
2021/11/26 10:09:21;;;;;;;16.73;2.25;;;;;;;4.82;83.96;99347.50;5072275;28;20480;-77
2021/11/26 10:11:48;;;;;;;19.10;2.15;;;;;;;4.79;84.07;99348.69;5075946;28;20051;-76
2021/11/26 10:14:27;;;;;;;12.50;1.90;;;;;;;4.78;84.30;99340.84;5075556;28;20020;-79
2021/11/26 10:17:23;;;;;;;17.77;2.45;;;;;;;4.73;82.73;99327.25;5075105;28;20025;-77
2021/11/26 10:19:54;;;;;;;11.55;2.05;;;;;;;4.77;82.56;99302.72;5038637;28;20442;-78
2021/11/26 10:22:30;;;;;;;16.38;2.65;;;;;;;4.78;82.37;99298.19;5074903;28;20036;-78
2021/11/26 10:24:56;;;;;;;11.07;2.10;;;;;;;4.75;82.14;99279.91;5075769;28;20029;-76
2021/11/26 10:27:33;;;;;;;10.50;2.40;;;;;;;4.74;82.05;99291.56;5075958;28;20027;-76
2021/11/26 10:30:08;;;;;;;11.48;2.20;;;;;;;4.72;81.59;99257.13;5073240;28;20055;-78
2021/11/26 10:32:33;;;;;;;11.65;2.40;;;;;;;4.75;82.02;99246.09;5075055;28;20110;-79
2021/11/26 10:34:58;;;;;;;14.07;1.88;;;;;;;4.75;81.64;99251.41;5075554;28;20028;-77
2021/11/26 10:37:24;;;;;;;10.73;2.15;;;;;;;4.68;81.19;99234.50;5075667;28;20509;-76
2021/11/26 10:39:49;;;;;;;6.97;2.40;;;;;;;4.72;82.22;99237.66;5061403;28;20032;-77
2021/11/26 10:42:26;;;;;;;14.02;2.63;;;;;;;4.72;82.27;99221.66;5075074;28;20032;-76
2021/11/26 10:44:58;;;;;;;8.48;2.50;;;;;;;4.74;81.45;99211.63;5077389;28;20028;-78
2021/11/26 10:47:45;;;;;;;10.63;2.30;;;;;;;4.68;81.86;99197.19;5070497;28;20020;-80
2021/11/26 11:01:07;;;;;;;14.82;2.65;;;;;;;4.79;80.89;99155.91;5062046;28;20039;-77
2021/11/26 11:03:32;;;;;;;12.27;2.97;;;;;;;4.77;80.84;99147.31;5080008;28;20016;-76
2021/11/26 11:05:58;;;;;;;13.55;2.58;;;;;;;4.74;81.03;99150.31;5062469;28;20065;-77
2021/11/26 11:08:24;;;;;;;9.45;2.55;;;;;;;4.73;81.14;99167.34;5084697;28;20418;-78
2021/11/26 11:10:51;;;;;;;21.90;2.58;;;;;;;4.70;81.32;99133.88;5085923;28;20484;-74
2021/11/26 11:13:18;;;;;;;7.28;2.30;;;;;;;4.76;81.65;99108.31;5089638;28;20035;-77
2021/11/26 11:15:45;;;;;;;14.05;2.40;;;;;;;4.73;81.94;99092.72;5074591;28;20124;-77
2021/11/26 11:18:12;;;;;;;13.18;3.47;;;;;;;4.73;82.45;99077.53;5066280;28;20036;-77
2021/11/26 11:20:39;;;;;;;7.00;2.08;;;;;;;4.73;82.09;99082.88;5058567;28;20059;-77
2021/11/26 11:23:04;;;;;;;12.27;3.10;;;;;;;4.73;82.17;99058.06;5057187;28;20040;-78
2021/11/26 11:25:30;;;;;;;17.92;2.80;;;;;;;4.79;81.81;99054.66;5075042;28;20419;-77
2021/11/26 11:28:09;;;;;;;17.83;3.70;;;;;;;4.76;82.06;99037.19;5074944;28;20047;-76
2021/11/26 11:30:35;;;;;;;6.55;2.53;;;;;;;4.82;82.22;99028.47;5074659;28;20403;-77
2021/11/26 11:33:02;;;;;;;23.08;3.03;;;;;;;4.82;82.36;99038.31;5074948;28;20454;-75
2021/11/26 11:35:30;;;;;;;13.93;2.60;;;;;;;4.78;82.44;99029.84;5075599;28;20025;-77
2021/11/26 11:37:58;;;;;;;12.50;2.60;;;;;;;4.73;82.60;99023.44;5056906;28;20033;-79
2021/11/26 11:40:32;;;;;;;12.15;2.85;;;;;;;4.77;83.61;99008.72;5075129;28;20031;-77